sensor_id;sensor_type;location;lat;lon;timestamp;temperature;humidity
55488;DHT22;41352;53.158;6.788;2023-08-30T00:00:54;13.80;99.90
55488;DHT22;41352;53.158;6.788;2023-08-30T00:03:20;13.70;99.90
55488;DHT22;41352;53.158;6.788;2023-08-30T00:05:45;13.70;99.90
55488;DHT22;41352;53.158;6.788;2023-08-30T00:08:11;13.70;99.90
55488;DHT22;41352;53.158;6.788;2023-08-30T00:10:39;13.70;99.90
55488;DHT22;41352;53.158;6.788;2023-08-30T00:15:34;13.60;99.90
55488;DHT22;41352;53.158;6.788;2023-08-30T00:18:00;13.50;99.90
55488;DHT22;41352;53.158;6.788;2023-08-30T00:20:26;13.50;99.90
55488;DHT22;41352;53.158;6.788;2023-08-30T00:22:52;13.40;99.90
55488;DHT22;41352;53.158;6.788;2023-08-30T00:25:18;13.40;99.90
55488;DHT22;41352;53.158;6.788;2023-08-30T00:27:43;13.30;99.90
55488;DHT22;41352;53.158;6.788;2023-08-30T00:30:09;13.30;99.90
55488;DHT22;41352;53.158;6.788;2023-08-30T00:32:36;13.20;99.90
55488;DHT22;41352;53.158;6.788;2023-08-30T00:35:02;13.20;99.90
55488;DHT22;41352;53.158;6.788;2023-08-30T00:37:27;13.20;99.90
55488;DHT22;41352;53.158;6.788;2023-08-30T00:39:53;13.30;99.90
55488;DHT22;41352;53.158;6.788;2023-08-30T00:42:19;13.30;99.90
55488;DHT22;41352;53.158;6.788;2023-08-30T00:44:44;13.30;99.90
55488;DHT22;41352;53.158;6.788;2023-08-30T00:47:10;13.30;99.90
55488;DHT22;41352;53.158;6.788;2023-08-30T00:49:36;13.30;99.90
55488;DHT22;41352;53.158;6.788;2023-08-30T00:52:05;13.30;99.90
55488;DHT22;41352;53.158;6.788;2023-08-30T00:54:35;13.20;99.90
55488;DHT22;41352;53.158;6.788;2023-08-30T00:57:01;13.20;99.90
55488;DHT22;41352;53.158;6.788;2023-08-30T00:59:27;13.20;99.90
55488;DHT22;41352;53.158;6.788;2023-08-30T01:01:54;13.10;99.90
55488;DHT22;41352;53.158;6.788;2023-08-30T01:04:20;13.00;99.90
55488;DHT22;41352;53.158;6.788;2023-08-30T01:06:46;13.00;99.90
55488;DHT22;41352;53.158;6.788;2023-08-30T01:09:11;13.00;99.90
55488;DHT22;41352;53.158;6.788;2023-08-30T01:14:34;13.00;99.90
55488;DHT22;41352;53.158;6.788;2023-08-30T01:17:05;12.90;99.90
55488;DHT22;41352;53.158;6.788;2023-08-30T01:20:00;12.90;99.90
55488;DHT22;41352;53.158;6.788;2023-08-30T01:27:55;12.80;99.90
55488;DHT22;41352;53.158;6.788;2023-08-30T01:30:22;12.80;99.90
55488;DHT22;41352;53.158;6.788;2023-08-30T01:32:49;12.80;99.90
55488;DHT22;41352;53.158;6.788;2023-08-30T01:35:16;12.70;99.90
55488;DHT22;41352;53.158;6.788;2023-08-30T01:37:46;12.10;99.90
55488;DHT22;41352;53.158;6.788;2023-08-30T01:40:13;12.80;99.90
55488;DHT22;41352;53.158;6.788;2023-08-30T01:42:40;12.80;99.90
55488;DHT22;41352;53.158;6.788;2023-08-30T01:45:10;12.70;99.90
55488;DHT22;41352;53.158;6.788;2023-08-30T01:47:40;12.70;99.90
55488;DHT22;41352;53.158;6.788;2023-08-30T01:50:10;12.60;99.90
55488;DHT22;41352;53.158;6.788;2023-08-30T01:52:37;12.60;99.90
55488;DHT22;41352;53.158;6.788;2023-08-30T01:55:03;12.60;99.90
55488;DHT22;41352;53.158;6.788;2023-08-30T01:57:30;12.50;99.90
55488;DHT22;41352;53.158;6.788;2023-08-30T01:59:55;12.50;99.90
55488;DHT22;41352;53.158;6.788;2023-08-30T02:02:21;12.40;99.90
55488;DHT22;41352;53.158;6.788;2023-08-30T02:04:46;12.50;99.90
55488;DHT22;41352;53.158;6.788;2023-08-30T02:07:27;12.40;99.90
55488;DHT22;41352;53.158;6.788;2023-08-30T02:12:21;12.40;99.90
55488;DHT22;41352;53.158;6.788;2023-08-30T02:14:49;12.40;99.90
55488;DHT22;41352;53.158;6.788;2023-08-30T02:17:15;12.40;99.90
55488;DHT22;41352;53.158;6.788;2023-08-30T02:19:43;12.40;99.90
55488;DHT22;41352;53.158;6.788;2023-08-30T02:22:09;12.40;99.90
55488;DHT22;41352;53.158;6.788;2023-08-30T02:24:34;12.40;99.90
55488;DHT22;41352;53.158;6.788;2023-08-30T02:27:00;12.40;99.90
55488;DHT22;41352;53.158;6.788;2023-08-30T02:29:26;12.30;99.90
55488;DHT22;41352;53.158;6.788;2023-08-30T02:31:51;12.30;99.90
55488;DHT22;41352;53.158;6.788;2023-08-30T02:34:17;12.20;99.90
55488;DHT22;41352;53.158;6.788;2023-08-30T02:36:43;12.20;99.90
55488;DHT22;41352;53.158;6.788;2023-08-30T02:39:09;12.20;99.90
55488;DHT22;41352;53.158;6.788;2023-08-30T02:41:34;12.20;99.90
55488;DHT22;41352;53.158;6.788;2023-08-30T02:44:00;12.10;99.90
55488;DHT22;41352;53.158;6.788;2023-08-30T02:46:26;12.10;99.90
55488;DHT22;41352;53.158;6.788;2023-08-30T02:48:51;12.00;99.90
55488;DHT22;41352;53.158;6.788;2023-08-30T02:51:17;12.00;99.90
55488;DHT22;41352;53.158;6.788;2023-08-30T02:53:43;12.00;99.90
55488;DHT22;41352;53.158;6.788;2023-08-30T02:56:08;12.00;99.90
55488;DHT22;41352;53.158;6.788;2023-08-30T02:58:34;12.00;99.90
55488;DHT22;41352;53.158;6.788;2023-08-30T03:01:01;12.00;99.90
55488;DHT22;41352;53.158;6.788;2023-08-30T03:03:28;11.90;99.90
55488;DHT22;41352;53.158;6.788;2023-08-30T03:05:53;11.80;99.90
55488;DHT22;41352;53.158;6.788;2023-08-30T03:08:19;11.80;99.90
55488;DHT22;41352;53.158;6.788;2023-08-30T03:10:45;11.80;99.90
55488;DHT22;41352;53.158;6.788;2023-08-30T03:13:10;11.70;99.90
55488;DHT22;41352;53.158;6.788;2023-08-30T03:15:36;11.70;99.90
55488;DHT22;41352;53.158;6.788;2023-08-30T03:18:02;11.70;99.90
55488;DHT22;41352;53.158;6.788;2023-08-30T03:20:27;11.70;99.90
55488;DHT22;41352;53.158;6.788;2023-08-30T03:22:56;11.70;99.90
55488;DHT22;41352;53.158;6.788;2023-08-30T03:25:28;11.60;99.90
55488;DHT22;41352;53.158;6.788;2023-08-30T03:27:55;11.60;99.90
55488;DHT22;41352;53.158;6.788;2023-08-30T03:30:20;11.60;99.90
55488;DHT22;41352;53.158;6.788;2023-08-30T03:32:46;11.70;99.90
55488;DHT22;41352;53.158;6.788;2023-08-30T03:35:11;11.60;99.90
55488;DHT22;41352;53.158;6.788;2023-08-30T03:37:37;11.60;99.90
55488;DHT22;41352;53.158;6.788;2023-08-30T03:40:04;11.50;99.90
55488;DHT22;41352;53.158;6.788;2023-08-30T03:42:30;11.50;99.90
55488;DHT22;41352;53.158;6.788;2023-08-30T03:44:56;11.50;99.90
55488;DHT22;41352;53.158;6.788;2023-08-30T03:47:21;11.40;99.90
55488;DHT22;41352;53.158;6.788;2023-08-30T03:49:47;11.40;99.90
55488;DHT22;41352;53.158;6.788;2023-08-30T03:52:13;11.40;99.90
55488;DHT22;41352;53.158;6.788;2023-08-30T03:54:39;11.30;99.90
55488;DHT22;41352;53.158;6.788;2023-08-30T03:57:04;11.30;99.90
55488;DHT22;41352;53.158;6.788;2023-08-30T03:59:30;11.30;99.90
55488;DHT22;41352;53.158;6.788;2023-08-30T04:01:56;11.30;99.90
55488;DHT22;41352;53.158;6.788;2023-08-30T04:04:21;11.30;99.90
55488;DHT22;41352;53.158;6.788;2023-08-30T04:06:47;11.30;99.90
55488;DHT22;41352;53.158;6.788;2023-08-30T04:09:13;11.30;99.90
55488;DHT22;41352;53.158;6.788;2023-08-30T04:11:38;11.20;99.90
55488;DHT22;41352;53.158;6.788;2023-08-30T04:14:04;11.20;99.90
55488;DHT22;41352;53.158;6.788;2023-08-30T04:16:30;11.20;99.90
55488;DHT22;41352;53.158;6.788;2023-08-30T04:18:55;11.20;99.90
55488;DHT22;41352;53.158;6.788;2023-08-30T04:21:21;11.20;99.90
55488;DHT22;41352;53.158;6.788;2023-08-30T04:23:47;11.20;99.90
55488;DHT22;41352;53.158;6.788;2023-08-30T04:26:12;11.10;99.90
55488;DHT22;41352;53.158;6.788;2023-08-30T04:28:38;11.10;99.90
55488;DHT22;41352;53.158;6.788;2023-08-30T04:31:03;11.10;99.90
55488;DHT22;41352;53.158;6.788;2023-08-30T04:33:29;11.00;99.90
55488;DHT22;41352;53.158;6.788;2023-08-30T04:35:55;11.00;99.90
55488;DHT22;41352;53.158;6.788;2023-08-30T04:38:21;11.00;99.90
55488;DHT22;41352;53.158;6.788;2023-08-30T04:40:47;11.00;99.90
55488;DHT22;41352;53.158;6.788;2023-08-30T04:43:13;10.90;99.90
55488;DHT22;41352;53.158;6.788;2023-08-30T04:45:39;10.90;99.90
55488;DHT22;41352;53.158;6.788;2023-08-30T04:50:34;10.90;99.90
55488;DHT22;41352;53.158;6.788;2023-08-30T04:53:00;10.80;99.90
55488;DHT22;41352;53.158;6.788;2023-08-30T04:55:28;10.90;99.90
55488;DHT22;41352;53.158;6.788;2023-08-30T04:57:54;10.80;99.90
55488;DHT22;41352;53.158;6.788;2023-08-30T05:00:20;10.80;99.90
55488;DHT22;41352;53.158;6.788;2023-08-30T05:02:46;10.80;99.90
55488;DHT22;41352;53.158;6.788;2023-08-30T05:05:13;10.80;99.90
55488;DHT22;41352;53.158;6.788;2023-08-30T05:07:38;10.90;99.90
55488;DHT22;41352;53.158;6.788;2023-08-30T05:12:34;10.90;99.90
55488;DHT22;41352;53.158;6.788;2023-08-30T05:15:00;11.00;99.90
55488;DHT22;41352;53.158;6.788;2023-08-30T05:17:26;10.90;99.90
55488;DHT22;41352;53.158;6.788;2023-08-30T05:19:54;11.00;99.90
55488;DHT22;41352;53.158;6.788;2023-08-30T05:22:19;11.00;99.90
55488;DHT22;41352;53.158;6.788;2023-08-30T05:24:45;11.10;99.90
55488;DHT22;41352;53.158;6.788;2023-08-30T05:27:11;11.20;99.90
55488;DHT22;41352;53.158;6.788;2023-08-30T05:29:38;11.20;99.90
55488;DHT22;41352;53.158;6.788;2023-08-30T05:32:04;11.30;99.90
55488;DHT22;41352;53.158;6.788;2023-08-30T05:34:30;11.30;99.90
55488;DHT22;41352;53.158;6.788;2023-08-30T05:36:56;11.40;99.90
55488;DHT22;41352;53.158;6.788;2023-08-30T05:39:22;11.50;99.90
55488;DHT22;41352;53.158;6.788;2023-08-30T05:41:48;11.50;99.90
55488;DHT22;41352;53.158;6.788;2023-08-30T05:44:13;11.60;99.90
55488;DHT22;41352;53.158;6.788;2023-08-30T05:46:39;11.70;99.90
55488;DHT22;41352;53.158;6.788;2023-08-30T05:49:05;11.80;99.90
55488;DHT22;41352;53.158;6.788;2023-08-30T05:51:34;11.80;99.90
55488;DHT22;41352;53.158;6.788;2023-08-30T05:54:00;11.90;99.90
55488;DHT22;41352;53.158;6.788;2023-08-30T05:56:26;11.90;99.90
55488;DHT22;41352;53.158;6.788;2023-08-30T05:58:51;12.00;99.90
55488;DHT22;41352;53.158;6.788;2023-08-30T06:01:18;12.10;99.90
55488;DHT22;41352;53.158;6.788;2023-08-30T06:03:45;12.20;99.90
55488;DHT22;41352;53.158;6.788;2023-08-30T06:06:12;12.30;99.90
55488;DHT22;41352;53.158;6.788;2023-08-30T06:08:38;12.40;99.90
55488;DHT22;41352;53.158;6.788;2023-08-30T06:11:04;12.50;99.90
55488;DHT22;41352;53.158;6.788;2023-08-30T06:13:29;12.60;99.90
55488;DHT22;41352;53.158;6.788;2023-08-30T06:15:55;12.60;99.90
55488;DHT22;41352;53.158;6.788;2023-08-30T06:18:21;12.70;99.90
55488;DHT22;41352;53.158;6.788;2023-08-30T06:20:47;12.80;99.90
55488;DHT22;41352;53.158;6.788;2023-08-30T06:23:14;12.80;99.90
55488;DHT22;41352;53.158;6.788;2023-08-30T06:25:41;12.90;99.90
55488;DHT22;41352;53.158;6.788;2023-08-30T06:28:10;13.00;99.90
55488;DHT22;41352;53.158;6.788;2023-08-30T06:30:36;13.10;99.90
55488;DHT22;41352;53.158;6.788;2023-08-30T06:33:02;13.30;99.90
55488;DHT22;41352;53.158;6.788;2023-08-30T06:35:28;13.50;99.90
55488;DHT22;41352;53.158;6.788;2023-08-30T06:37:53;13.50;99.90
55488;DHT22;41352;53.158;6.788;2023-08-30T06:40:21;13.70;99.90
55488;DHT22;41352;53.158;6.788;2023-08-30T06:42:46;13.90;99.90
55488;DHT22;41352;53.158;6.788;2023-08-30T06:45:12;14.00;99.90
55488;DHT22;41352;53.158;6.788;2023-08-30T06:47:37;14.20;99.90
55488;DHT22;41352;53.158;6.788;2023-08-30T06:50:03;14.30;99.90
55488;DHT22;41352;53.158;6.788;2023-08-30T06:52:29;14.50;99.90
55488;DHT22;41352;53.158;6.788;2023-08-30T06:54:55;14.60;99.90
55488;DHT22;41352;53.158;6.788;2023-08-30T06:57:20;14.90;99.90
55488;DHT22;41352;53.158;6.788;2023-08-30T06:59:47;14.80;99.90
55488;DHT22;41352;53.158;6.788;2023-08-30T07:02:13;15.00;99.90
55488;DHT22;41352;53.158;6.788;2023-08-30T07:04:39;15.00;99.90
55488;DHT22;41352;53.158;6.788;2023-08-30T07:07:09;15.10;99.90
55488;DHT22;41352;53.158;6.788;2023-08-30T07:09:35;15.10;99.90
55488;DHT22;41352;53.158;6.788;2023-08-30T07:12:00;15.30;99.90
55488;DHT22;41352;53.158;6.788;2023-08-30T07:14:26;15.40;99.90
55488;DHT22;41352;53.158;6.788;2023-08-30T07:16:52;15.50;99.90
55488;DHT22;41352;53.158;6.788;2023-08-30T07:19:17;15.60;99.90
55488;DHT22;41352;53.158;6.788;2023-08-30T07:21:43;15.60;99.90
55488;DHT22;41352;53.158;6.788;2023-08-30T07:24:09;15.80;99.90
55488;DHT22;41352;53.158;6.788;2023-08-30T07:26:35;15.90;99.90
55488;DHT22;41352;53.158;6.788;2023-08-30T07:29:01;16.00;99.90
55488;DHT22;41352;53.158;6.788;2023-08-30T07:31:27;16.10;99.90
55488;DHT22;41352;53.158;6.788;2023-08-30T07:33:53;16.20;99.90
55488;DHT22;41352;53.158;6.788;2023-08-30T07:36:18;16.30;99.90
55488;DHT22;41352;53.158;6.788;2023-08-30T07:38:44;16.20;99.90
55488;DHT22;41352;53.158;6.788;2023-08-30T07:41:10;16.30;99.90
55488;DHT22;41352;53.158;6.788;2023-08-30T07:43:35;16.20;99.90
55488;DHT22;41352;53.158;6.788;2023-08-30T07:46:01;16.40;99.90
55488;DHT22;41352;53.158;6.788;2023-08-30T07:48:27;16.50;99.90
55488;DHT22;41352;53.158;6.788;2023-08-30T07:50:53;16.60;99.90
55488;DHT22;41352;53.158;6.788;2023-08-30T07:53:19;16.50;99.90
55488;DHT22;41352;53.158;6.788;2023-08-30T07:55:48;16.50;99.90
55488;DHT22;41352;53.158;6.788;2023-08-30T07:58:16;16.60;99.90
55488;DHT22;41352;53.158;6.788;2023-08-30T08:00:42;16.80;99.90
55488;DHT22;41352;53.158;6.788;2023-08-30T08:05:36;17.10;99.90
55488;DHT22;41352;53.158;6.788;2023-08-30T08:08:02;17.40;99.90
55488;DHT22;41352;53.158;6.788;2023-08-30T08:10:33;17.40;99.90
55488;DHT22;41352;53.158;6.788;2023-08-30T08:13:01;17.40;99.90
55488;DHT22;41352;53.158;6.788;2023-08-30T08:15:28;17.50;99.90
55488;DHT22;41352;53.158;6.788;2023-08-30T08:17:56;17.50;99.90
55488;DHT22;41352;53.158;6.788;2023-08-30T08:20:22;17.30;99.90
55488;DHT22;41352;53.158;6.788;2023-08-30T08:22:47;17.50;99.90
55488;DHT22;41352;53.158;6.788;2023-08-30T08:25:14;17.40;99.90
55488;DHT22;41352;53.158;6.788;2023-08-30T08:27:41;17.60;99.90
55488;DHT22;41352;53.158;6.788;2023-08-30T08:30:11;17.70;99.90
55488;DHT22;41352;53.158;6.788;2023-08-30T08:32:36;18.10;99.90
55488;DHT22;41352;53.158;6.788;2023-08-30T08:35:02;18.00;99.90
55488;DHT22;41352;53.158;6.788;2023-08-30T08:37:28;17.90;99.90
55488;DHT22;41352;53.158;6.788;2023-08-30T08:39:54;17.60;99.90
55488;DHT22;41352;53.158;6.788;2023-08-30T08:42:20;17.70;99.90
55488;DHT22;41352;53.158;6.788;2023-08-30T08:44:47;17.80;99.90
55488;DHT22;41352;53.158;6.788;2023-08-30T08:47:17;17.80;99.90
55488;DHT22;41352;53.158;6.788;2023-08-30T08:49:47;18.00;99.90
55488;DHT22;41352;53.158;6.788;2023-08-30T08:52:14;18.00;99.90
55488;DHT22;41352;53.158;6.788;2023-08-30T08:54:40;18.30;99.90
55488;DHT22;41352;53.158;6.788;2023-08-30T08:57:09;18.40;99.90
55488;DHT22;41352;53.158;6.788;2023-08-30T08:59:35;18.40;99.90
55488;DHT22;41352;53.158;6.788;2023-08-30T09:02:02;18.60;99.90
55488;DHT22;41352;53.158;6.788;2023-08-30T09:04:30;18.80;99.90
55488;DHT22;41352;53.158;6.788;2023-08-30T09:06:58;18.80;99.90
55488;DHT22;41352;53.158;6.788;2023-08-30T09:09:25;19.00;99.90
55488;DHT22;41352;53.158;6.788;2023-08-30T09:11:50;19.10;99.90
55488;DHT22;41352;53.158;6.788;2023-08-30T09:14:16;19.20;99.90
55488;DHT22;41352;53.158;6.788;2023-08-30T09:16:42;19.30;99.90
55488;DHT22;41352;53.158;6.788;2023-08-30T09:21:36;19.20;99.90
55488;DHT22;41352;53.158;6.788;2023-08-30T09:24:04;18.90;99.90
55488;DHT22;41352;53.158;6.788;2023-08-30T09:26:31;19.10;99.90
55488;DHT22;41352;53.158;6.788;2023-08-30T09:31:35;18.90;99.90
55488;DHT22;41352;53.158;6.788;2023-08-30T09:36:37;18.80;99.90
55488;DHT22;41352;53.158;6.788;2023-08-30T09:41:35;18.60;99.90
55488;DHT22;41352;53.158;6.788;2023-08-30T09:46:43;18.50;99.90
55488;DHT22;41352;53.158;6.788;2023-08-30T09:49:12;18.50;99.90
55488;DHT22;41352;53.158;6.788;2023-08-30T09:51:40;18.40;99.90
55488;DHT22;41352;53.158;6.788;2023-08-30T09:54:15;18.30;99.90
55488;DHT22;41352;53.158;6.788;2023-08-30T09:56:42;18.10;99.90
55488;DHT22;41352;53.158;6.788;2023-08-30T09:59:13;17.90;99.90
55488;DHT22;41352;53.158;6.788;2023-08-30T10:01:40;17.70;99.90
55488;DHT22;41352;53.158;6.788;2023-08-30T10:04:31;17.30;99.90
55488;DHT22;41352;53.158;6.788;2023-08-30T10:06:58;17.40;99.90
55488;DHT22;41352;53.158;6.788;2023-08-30T10:09:25;17.40;99.90
55488;DHT22;41352;53.158;6.788;2023-08-30T10:11:51;17.20;99.90
55488;DHT22;41352;53.158;6.788;2023-08-30T10:14:17;17.10;99.90
55488;DHT22;41352;53.158;6.788;2023-08-30T10:16:44;16.90;99.90
55488;DHT22;41352;53.158;6.788;2023-08-30T10:19:31;16.70;99.90
55488;DHT22;41352;53.158;6.788;2023-08-30T10:24:42;16.70;99.90
55488;DHT22;41352;53.158;6.788;2023-08-30T10:27:11;17.00;99.90
55488;DHT22;41352;53.158;6.788;2023-08-30T10:29:39;17.50;99.90
55488;DHT22;41352;53.158;6.788;2023-08-30T10:32:10;17.70;99.90
55488;DHT22;41352;53.158;6.788;2023-08-30T10:34:36;18.20;99.90
55488;DHT22;41352;53.158;6.788;2023-08-30T10:37:05;18.70;99.90
55488;DHT22;41352;53.158;6.788;2023-08-30T10:39:39;19.30;99.90
55488;DHT22;41352;53.158;6.788;2023-08-30T10:44:31;20.10;99.90
55488;DHT22;41352;53.158;6.788;2023-08-30T10:46:56;20.90;99.90
55488;DHT22;41352;53.158;6.788;2023-08-30T10:49:22;21.00;99.90
55488;DHT22;41352;53.158;6.788;2023-08-30T10:51:59;20.60;99.90
55488;DHT22;41352;53.158;6.788;2023-08-30T10:54:37;21.10;99.90
55488;DHT22;41352;53.158;6.788;2023-08-30T10:57:04;20.50;99.90
55488;DHT22;41352;53.158;6.788;2023-08-30T10:59:30;21.00;99.90
55488;DHT22;41352;53.158;6.788;2023-08-30T11:01:56;20.60;99.90
55488;DHT22;41352;53.158;6.788;2023-08-30T11:04:22;20.70;99.90
55488;DHT22;41352;53.158;6.788;2023-08-30T11:06:50;20.80;99.90
55488;DHT22;41352;53.158;6.788;2023-08-30T11:09:17;20.80;99.90
55488;DHT22;41352;53.158;6.788;2023-08-30T11:11:44;20.50;99.90
55488;DHT22;41352;53.158;6.788;2023-08-30T11:14:11;20.50;99.90
55488;DHT22;41352;53.158;6.788;2023-08-30T11:16:38;20.50;99.90
55488;DHT22;41352;53.158;6.788;2023-08-30T11:19:05;20.10;99.90
55488;DHT22;41352;53.158;6.788;2023-08-30T11:21:37;19.90;99.90
55488;DHT22;41352;53.158;6.788;2023-08-30T11:24:04;19.90;99.90
55488;DHT22;41352;53.158;6.788;2023-08-30T11:26:30;19.70;99.90
55488;DHT22;41352;53.158;6.788;2023-08-30T11:28:56;20.10;99.90
55488;DHT22;41352;53.158;6.788;2023-08-30T11:31:23;20.00;99.90
55488;DHT22;41352;53.158;6.788;2023-08-30T11:33:57;20.30;99.90
55488;DHT22;41352;53.158;6.788;2023-08-30T11:36:25;20.40;99.90
55488;DHT22;41352;53.158;6.788;2023-08-30T11:38:52;20.20;99.90
55488;DHT22;41352;53.158;6.788;2023-08-30T11:41:19;20.10;99.90
55488;DHT22;41352;53.158;6.788;2023-08-30T11:43:48;19.80;99.90
55488;DHT22;41352;53.158;6.788;2023-08-30T11:46:14;19.80;99.90
55488;DHT22;41352;53.158;6.788;2023-08-30T11:48:43;19.90;99.90
55488;DHT22;41352;53.158;6.788;2023-08-30T11:51:10;20.00;99.90
55488;DHT22;41352;53.158;6.788;2023-08-30T11:53:37;19.50;99.90
55488;DHT22;41352;53.158;6.788;2023-08-30T11:56:03;19.50;99.90
55488;DHT22;41352;53.158;6.788;2023-08-30T11:58:32;19.30;99.90
55488;DHT22;41352;53.158;6.788;2023-08-30T12:00:59;18.80;99.90
55488;DHT22;41352;53.158;6.788;2023-08-30T12:03:31;18.80;99.90
55488;DHT22;41352;53.158;6.788;2023-08-30T12:05:58;18.70;99.90
55488;DHT22;41352;53.158;6.788;2023-08-30T12:08:30;18.50;99.90
55488;DHT22;41352;53.158;6.788;2023-08-30T12:10:57;18.30;99.90
55488;DHT22;41352;53.158;6.788;2023-08-30T12:13:29;18.10;99.90
55488;DHT22;41352;53.158;6.788;2023-08-30T12:15:57;17.80;99.90
55488;DHT22;41352;53.158;6.788;2023-08-30T12:20:59;17.70;99.90
55488;DHT22;41352;53.158;6.788;2023-08-30T12:23:30;17.60;99.90
55488;DHT22;41352;53.158;6.788;2023-08-30T12:26:05;17.40;99.90
55488;DHT22;41352;53.158;6.788;2023-08-30T12:28:36;17.30;99.90
55488;DHT22;41352;53.158;6.788;2023-08-30T12:31:02;17.10;99.90
55488;DHT22;41352;53.158;6.788;2023-08-30T12:33:30;17.10;99.90
55488;DHT22;41352;53.158;6.788;2023-08-30T12:35:56;17.20;99.90
55488;DHT22;41352;53.158;6.788;2023-08-30T12:38:23;17.20;99.90
55488;DHT22;41352;53.158;6.788;2023-08-30T12:40:51;17.10;99.90
55488;DHT22;41352;53.158;6.788;2023-08-30T12:43:17;17.20;99.90
55488;DHT22;41352;53.158;6.788;2023-08-30T12:45:44;17.20;99.90
55488;DHT22;41352;53.158;6.788;2023-08-30T12:48:14;17.30;99.90
55488;DHT22;41352;53.158;6.788;2023-08-30T12:50:46;17.30;99.90
55488;DHT22;41352;53.158;6.788;2023-08-30T12:53:12;17.40;99.90
55488;DHT22;41352;53.158;6.788;2023-08-30T12:55:38;17.50;99.90
55488;DHT22;41352;53.158;6.788;2023-08-30T13:00:35;17.50;99.90
55488;DHT22;41352;53.158;6.788;2023-08-30T13:03:01;17.60;99.90
55488;DHT22;41352;53.158;6.788;2023-08-30T13:05:29;17.40;99.90
55488;DHT22;41352;53.158;6.788;2023-08-30T13:07:56;17.40;99.90
55488;DHT22;41352;53.158;6.788;2023-08-30T13:10:21;17.40;99.90
55488;DHT22;41352;53.158;6.788;2023-08-30T13:12:47;17.30;99.90
55488;DHT22;41352;53.158;6.788;2023-08-30T13:15:13;17.40;99.90
55488;DHT22;41352;53.158;6.788;2023-08-30T13:17:39;17.20;99.90
55488;DHT22;41352;53.158;6.788;2023-08-30T13:20:10;17.00;99.90
55488;DHT22;41352;53.158;6.788;2023-08-30T13:22:36;16.90;99.90
55488;DHT22;41352;53.158;6.788;2023-08-30T13:25:02;17.00;99.90
55488;DHT22;41352;53.158;6.788;2023-08-30T13:27:29;16.90;99.90
55488;DHT22;41352;53.158;6.788;2023-08-30T13:29:55;16.80;99.90
55488;DHT22;41352;53.158;6.788;2023-08-30T13:32:21;16.70;99.90
55488;DHT22;41352;53.158;6.788;2023-08-30T13:34:47;16.80;99.90
55488;DHT22;41352;53.158;6.788;2023-08-30T13:37:13;16.90;99.90
55488;DHT22;41352;53.158;6.788;2023-08-30T13:39:42;16.80;99.90
55488;DHT22;41352;53.158;6.788;2023-08-30T13:42:11;16.70;99.90
55488;DHT22;41352;53.158;6.788;2023-08-30T13:44:36;16.60;99.90
55488;DHT22;41352;53.158;6.788;2023-08-30T13:49:31;16.70;99.90
55488;DHT22;41352;53.158;6.788;2023-08-30T13:51:57;16.70;99.90
55488;DHT22;41352;53.158;6.788;2023-08-30T13:54:23;16.70;99.90
55488;DHT22;41352;53.158;6.788;2023-08-30T13:56:49;16.60;99.90
55488;DHT22;41352;53.158;6.788;2023-08-30T13:59:15;16.60;99.90
55488;DHT22;41352;53.158;6.788;2023-08-30T14:01:41;16.40;99.90
55488;DHT22;41352;53.158;6.788;2023-08-30T14:04:10;16.20;99.90
55488;DHT22;41352;53.158;6.788;2023-08-30T14:06:36;16.10;99.90
55488;DHT22;41352;53.158;6.788;2023-08-30T14:09:02;16.00;99.90
55488;DHT22;41352;53.158;6.788;2023-08-30T14:11:30;15.90;99.90
55488;DHT22;41352;53.158;6.788;2023-08-30T14:13:56;15.70;99.90
55488;DHT22;41352;53.158;6.788;2023-08-30T14:16:21;15.60;99.90
55488;DHT22;41352;53.158;6.788;2023-08-30T14:18:47;15.50;99.90
55488;DHT22;41352;53.158;6.788;2023-08-30T14:21:13;15.40;99.90
55488;DHT22;41352;53.158;6.788;2023-08-30T14:23:39;15.40;99.90
55488;DHT22;41352;53.158;6.788;2023-08-30T14:26:05;15.20;99.90
55488;DHT22;41352;53.158;6.788;2023-08-30T14:28:36;15.10;99.90
55488;DHT22;41352;53.158;6.788;2023-08-30T14:31:02;15.00;99.90
55488;DHT22;41352;53.158;6.788;2023-08-30T14:33:30;14.90;99.90
55488;DHT22;41352;53.158;6.788;2023-08-30T14:35:56;14.80;99.90
55488;DHT22;41352;53.158;6.788;2023-08-30T14:38:23;14.70;99.90
55488;DHT22;41352;53.158;6.788;2023-08-30T14:40:59;14.60;99.90
55488;DHT22;41352;53.158;6.788;2023-08-30T14:43:25;14.70;99.90
55488;DHT22;41352;53.158;6.788;2023-08-30T14:45:51;14.60;99.90
55488;DHT22;41352;53.158;6.788;2023-08-30T14:48:17;14.70;99.90
55488;DHT22;41352;53.158;6.788;2023-08-30T14:50:42;14.80;99.90
55488;DHT22;41352;53.158;6.788;2023-08-30T14:55:35;15.10;99.90
55488;DHT22;41352;53.158;6.788;2023-08-30T14:58:01;15.30;99.90
55488;DHT22;41352;53.158;6.788;2023-08-30T15:00:27;15.40;99.90
55488;DHT22;41352;53.158;6.788;2023-08-30T15:02:52;15.50;99.90
55488;DHT22;41352;53.158;6.788;2023-08-30T15:05:18;15.50;99.90
55488;DHT22;41352;53.158;6.788;2023-08-30T15:07:44;15.60;99.90
55488;DHT22;41352;53.158;6.788;2023-08-30T15:10:10;15.70;99.90
55488;DHT22;41352;53.158;6.788;2023-08-30T15:12:37;15.90;99.90
55488;DHT22;41352;53.158;6.788;2023-08-30T15:15:03;16.10;99.90
55488;DHT22;41352;53.158;6.788;2023-08-30T15:17:29;16.20;99.90
55488;DHT22;41352;53.158;6.788;2023-08-30T15:19:55;16.40;99.90
55488;DHT22;41352;53.158;6.788;2023-08-30T15:22:20;16.50;99.90
55488;DHT22;41352;53.158;6.788;2023-08-30T15:24:46;16.60;99.90
55488;DHT22;41352;53.158;6.788;2023-08-30T15:27:12;16.60;99.90
55488;DHT22;41352;53.158;6.788;2023-08-30T15:29:38;16.70;99.90
55488;DHT22;41352;53.158;6.788;2023-08-30T15:32:03;16.80;99.90
55488;DHT22;41352;53.158;6.788;2023-08-30T15:34:29;16.80;99.90
55488;DHT22;41352;53.158;6.788;2023-08-30T15:36:55;17.10;99.90
55488;DHT22;41352;53.158;6.788;2023-08-30T15:39:21;17.10;99.90
55488;DHT22;41352;53.158;6.788;2023-08-30T15:41:46;17.10;99.90
55488;DHT22;41352;53.158;6.788;2023-08-30T15:44:14;17.00;99.90
55488;DHT22;41352;53.158;6.788;2023-08-30T15:46:43;17.00;99.90
55488;DHT22;41352;53.158;6.788;2023-08-30T15:49:13;16.90;99.90
55488;DHT22;41352;53.158;6.788;2023-08-30T15:51:43;17.20;99.90
55488;DHT22;41352;53.158;6.788;2023-08-30T15:54:17;17.60;99.90
55488;DHT22;41352;53.158;6.788;2023-08-30T15:56:44;18.20;99.90
55488;DHT22;41352;53.158;6.788;2023-08-30T15:59:10;18.60;99.90
55488;DHT22;41352;53.158;6.788;2023-08-30T16:01:37;18.40;99.90
55488;DHT22;41352;53.158;6.788;2023-08-30T16:04:03;18.50;99.90
55488;DHT22;41352;53.158;6.788;2023-08-30T16:06:29;19.10;99.90
55488;DHT22;41352;53.158;6.788;2023-08-30T16:08:55;19.20;99.90
55488;DHT22;41352;53.158;6.788;2023-08-30T16:11:20;19.10;99.90
55488;DHT22;41352;53.158;6.788;2023-08-30T16:13:46;18.90;99.90
55488;DHT22;41352;53.158;6.788;2023-08-30T16:16:12;18.60;99.90